sensor_id;sensor_type;location;lat;lon;timestamp;pressure;altitude;pressure_sealevel;temperature;humidity
60583;BME280;46415;47.536;19.066;2024-03-22T00:01:55;-18544.38;;;11.60;82.16
60583;BME280;46415;47.536;19.066;2024-03-22T00:04:57;-18546.44;;;11.67;82.04
60583;BME280;46415;47.536;19.066;2024-03-22T00:07:59;-18548.19;;;11.74;81.68
60583;BME280;46415;47.536;19.066;2024-03-22T00:11:01;-18549.56;;;11.79;81.35
60583;BME280;46415;47.536;19.066;2024-03-22T00:14:03;-18551.50;;;11.86;81.23
60583;BME280;46415;47.536;19.066;2024-03-22T00:17:05;-18554.50;;;11.97;80.01
60583;BME280;46415;47.536;19.066;2024-03-22T00:20:06;-18555.19;;;12.00;79.99
60583;BME280;46415;47.536;19.066;2024-03-22T00:23:08;-18556.00;;;12.03;79.68
60583;BME280;46415;47.536;19.066;2024-03-22T00:26:10;-18557.66;;;12.09;79.26
60583;BME280;46415;47.536;19.066;2024-03-22T00:29:13;-18558.59;;;12.12;79.36
60583;BME280;46415;47.536;19.066;2024-03-22T00:32:14;-18558.19;;;12.11;78.94
60583;BME280;46415;47.536;19.066;2024-03-22T00:35:17;-18560.25;;;12.18;78.55
60583;BME280;46415;47.536;19.066;2024-03-22T00:38:19;-18560.38;;;12.19;78.66
60583;BME280;46415;47.536;19.066;2024-03-22T00:41:21;-18560.09;;;12.18;78.98
60583;BME280;46415;47.536;19.066;2024-03-22T00:44:22;-18560.09;;;12.18;78.33
60583;BME280;46415;47.536;19.066;2024-03-22T00:47:24;-18561.75;;;12.24;78.40
60583;BME280;46415;47.536;19.066;2024-03-22T00:50:26;-18561.75;;;12.24;78.45
60583;BME280;46415;47.536;19.066;2024-03-22T00:53:29;-18561.06;;;12.21;78.93
60583;BME280;46415;47.536;19.066;2024-03-22T00:56:31;-18559.97;;;12.17;79.06
60583;BME280;46415;47.536;19.066;2024-03-22T00:59:33;-18560.94;;;12.21;78.68
60583;BME280;46415;47.536;19.066;2024-03-22T01:02:35;-18561.34;;;12.22;79.00
60583;BME280;46415;47.536;19.066;2024-03-22T01:05:37;-18561.19;;;12.22;78.90
60583;BME280;46415;47.536;19.066;2024-03-22T01:08:39;-18560.94;;;12.21;79.10
60583;BME280;46415;47.536;19.066;2024-03-22T01:11:41;-18560.38;;;12.19;79.13
60583;BME280;46415;47.536;19.066;2024-03-22T01:14:43;-18560.38;;;12.19;79.14
60583;BME280;46415;47.536;19.066;2024-03-22T01:17:45;-18560.94;;;12.21;79.70
60583;BME280;46415;47.536;19.066;2024-03-22T01:20:47;-18560.50;;;12.19;79.88
60583;BME280;46415;47.536;19.066;2024-03-22T01:23:49;-18562.56;;;12.27;79.22
60583;BME280;46415;47.536;19.066;2024-03-22T01:26:51;-18562.44;;;12.26;78.88
60583;BME280;46415;47.536;19.066;2024-03-22T01:29:53;-18563.13;;;12.29;78.84
60583;BME280;46415;47.536;19.066;2024-03-22T01:32:55;-18561.75;;;12.24;79.29
60583;BME280;46415;47.536;19.066;2024-03-22T01:35:57;-18562.56;;;12.27;78.62
60583;BME280;46415;47.536;19.066;2024-03-22T01:38:59;-18563.38;;;12.30;78.65
60583;BME280;46415;47.536;19.066;2024-03-22T01:42:01;-18562.97;;;12.28;78.72
60583;BME280;46415;47.536;19.066;2024-03-22T01:45:03;-18561.88;;;12.24;79.49
60583;BME280;46415;47.536;19.066;2024-03-22T01:48:07;-18560.09;;;12.18;80.11
60583;BME280;46415;47.536;19.066;2024-03-22T01:51:09;-18559.97;;;12.17;80.59
60583;BME280;46415;47.536;19.066;2024-03-22T01:54:12;-18559.00;;;12.14;80.45
60583;BME280;46415;47.536;19.066;2024-03-22T01:57:13;-18560.38;;;12.19;79.78
60583;BME280;46415;47.536;19.066;2024-03-22T02:00:16;-18560.66;;;12.20;80.11
60583;BME280;46415;47.536;19.066;2024-03-22T02:03:18;-18560.38;;;12.19;80.09
60583;BME280;46415;47.536;19.066;2024-03-22T02:06:22;-18559.84;;;12.17;80.16
60583;BME280;46415;47.536;19.066;2024-03-22T02:09:24;-18559.56;;;12.16;80.49
60583;BME280;46415;47.536;19.066;2024-03-22T02:12:27;-18558.59;;;12.12;80.50
60583;BME280;46415;47.536;19.066;2024-03-22T02:15:29;-18558.75;;;12.13;80.43
60583;BME280;46415;47.536;19.066;2024-03-22T02:18:31;-18559.69;;;12.16;79.87
60583;BME280;46415;47.536;19.066;2024-03-22T02:21:33;-18560.94;;;12.21;79.97
60583;BME280;46415;47.536;19.066;2024-03-22T02:24:35;-18559.44;;;12.15;80.25
60583;BME280;46415;47.536;19.066;2024-03-22T02:27:38;-18557.50;;;12.08;81.07
60583;BME280;46415;47.536;19.066;2024-03-22T02:30:40;-18556.41;;;12.04;81.69
60583;BME280;46415;47.536;19.066;2024-03-22T02:33:42;-18555.88;;;12.02;82.10
60583;BME280;46415;47.536;19.066;2024-03-22T02:36:44;-18556.97;;;12.06;81.32
60583;BME280;46415;47.536;19.066;2024-03-22T02:39:46;-18557.50;;;12.08;81.20
60583;BME280;46415;47.536;19.066;2024-03-22T02:42:48;-18557.91;;;12.10;80.95
60583;BME280;46415;47.536;19.066;2024-03-22T02:45:50;-18555.19;;;12.00;81.93
60583;BME280;46415;47.536;19.066;2024-03-22T02:48:52;-18554.22;;;11.96;82.19
60583;BME280;46415;47.536;19.066;2024-03-22T02:51:54;-18554.50;;;11.97;82.29
60583;BME280;46415;47.536;19.066;2024-03-22T02:54:55;-18553.94;;;11.95;82.29
60583;BME280;46415;47.536;19.066;2024-03-22T02:57:58;-18553.94;;;11.95;82.06
60583;BME280;46415;47.536;19.066;2024-03-22T03:00:59;-18554.22;;;11.96;82.28
60583;BME280;46415;47.536;19.066;2024-03-22T03:04:01;-18553.69;;;11.94;82.67
60583;BME280;46415;47.536;19.066;2024-03-22T03:07:03;-18553.53;;;11.94;82.80
60583;BME280;46415;47.536;19.066;2024-03-22T03:10:06;-18555.31;;;12.00;82.05
60583;BME280;46415;47.536;19.066;2024-03-22T03:13:08;-18555.03;;;11.99;82.69
60583;BME280;46415;47.536;19.066;2024-03-22T03:16:10;-18556.13;;;12.03;83.35
60583;BME280;46415;47.536;19.066;2024-03-22T03:19:12;-18558.88;;;12.13;83.15
60583;BME280;46415;47.536;19.066;2024-03-22T03:22:14;-18558.06;;;12.10;83.65
60583;BME280;46415;47.536;19.066;2024-03-22T03:25:16;-18555.47;;;12.01;85.73
60583;BME280;46415;47.536;19.066;2024-03-22T03:28:18;-18556.28;;;12.04;85.93
60583;BME280;46415;47.536;19.066;2024-03-22T03:31:20;-18555.47;;;12.01;86.70
60583;BME280;46415;47.536;19.066;2024-03-22T03:34:22;-18552.44;;;11.90;87.79
60583;BME280;46415;47.536;19.066;2024-03-22T03:37:24;-18551.91;;;11.88;88.65
60583;BME280;46415;47.536;19.066;2024-03-22T03:40:26;-18553.69;;;11.94;89.22
60583;BME280;46415;47.536;19.066;2024-03-22T03:43:29;-18555.19;;;12.00;89.56
60583;BME280;46415;47.536;19.066;2024-03-22T03:46:31;-18553.69;;;11.94;90.25
60583;BME280;46415;47.536;19.066;2024-03-22T03:49:33;-18553.53;;;11.94;90.90
60583;BME280;46415;47.536;19.066;2024-03-22T03:52:35;-18555.31;;;12.00;91.17
60583;BME280;46415;47.536;19.066;2024-03-22T03:55:37;-18554.38;;;11.97;92.38
60583;BME280;46415;47.536;19.066;2024-03-22T03:58:39;-18552.59;;;11.90;93.24
60583;BME280;46415;47.536;19.066;2024-03-22T04:01:41;-18552.16;;;11.89;93.68
60583;BME280;46415;47.536;19.066;2024-03-22T04:04:43;-18552.03;;;11.88;94.27
60583;BME280;46415;47.536;19.066;2024-03-22T04:07:47;-18554.09;;;11.96;94.73
60583;BME280;46415;47.536;19.066;2024-03-22T04:10:56;-18556.00;;;12.03;95.97
60583;BME280;46415;47.536;19.066;2024-03-22T04:14:01;-18556.28;;;12.04;97.43
60583;BME280;46415;47.536;19.066;2024-03-22T04:17:03;-18555.19;;;12.00;98.60
60583;BME280;46415;47.536;19.066;2024-03-22T04:20:05;-18554.63;;;11.98;99.15
60583;BME280;46415;47.536;19.066;2024-03-22T04:23:07;-18554.91;;;11.99;99.34
60583;BME280;46415;47.536;19.066;2024-03-22T04:26:09;-18551.09;;;11.84;100.00
60583;BME280;46415;47.536;19.066;2024-03-22T04:29:11;-18549.72;;;11.79;100.00
60583;BME280;46415;47.536;19.066;2024-03-22T04:32:13;-18548.63;;;11.75;100.00
60583;BME280;46415;47.536;19.066;2024-03-22T04:35:15;-18549.03;;;11.77;100.00
60583;BME280;46415;47.536;19.066;2024-03-22T04:38:16;-18548.75;;;11.76;100.00
60583;BME280;46415;47.536;19.066;2024-03-22T04:41:18;-18548.63;;;11.75;100.00
60583;BME280;46415;47.536;19.066;2024-03-22T04:44:20;-18548.63;;;11.75;100.00
60583;BME280;46415;47.536;19.066;2024-03-22T04:47:23;-18547.53;;;11.71;100.00
60583;BME280;46415;47.536;19.066;2024-03-22T04:50:25;-18546.97;;;11.69;100.00
60583;BME280;46415;47.536;19.066;2024-03-22T04:53:27;-18547.66;;;11.72;100.00
60583;BME280;46415;47.536;19.066;2024-03-22T04:56:29;-18545.75;;;11.65;100.00
60583;BME280;46415;47.536;19.066;2024-03-22T04:59:31;-18545.31;;;11.63;100.00
60583;BME280;46415;47.536;19.066;2024-03-22T05:02:32;-18543.97;;;11.58;100.00
60583;BME280;46415;47.536;19.066;2024-03-22T05:05:35;-18544.22;;;11.59;100.00
60583;BME280;46415;47.536;19.066;2024-03-22T05:08:36;-18541.62;;;11.50;100.00
60583;BME280;46415;47.536;19.066;2024-03-22T05:11:39;-18541.78;;;11.50;100.00
60583;BME280;46415;47.536;19.066;2024-03-22T05:14:40;-18542.03;;;11.51;100.00
60583;BME280;46415;47.536;19.066;2024-03-22T05:17:43;-18541.78;;;11.50;100.00
60583;BME280;46415;47.536;19.066;2024-03-22T05:20:45;-18541.50;;;11.49;100.00
60583;BME280;46415;47.536;19.066;2024-03-22T05:23:47;-18541.78;;;11.50;100.00
60583;BME280;46415;47.536;19.066;2024-03-22T05:26:48;-18545.19;;;11.63;100.00
60583;BME280;46415;47.536;19.066;2024-03-22T05:29:50;-18545.19;;;11.63;100.00
60583;BME280;46415;47.536;19.066;2024-03-22T05:32:52;-18546.00;;;11.66;100.00
60583;BME280;46415;47.536;19.066;2024-03-22T05:35:55;-18548.75;;;11.76;100.00
60583;BME280;46415;47.536;19.066;2024-03-22T05:38:56;-18548.19;;;11.74;100.00
60583;BME280;46415;47.536;19.066;2024-03-22T05:41:58;-18549.97;;;11.80;100.00
60583;BME280;46415;47.536;19.066;2024-03-22T05:45:00;-18549.72;;;11.79;100.00
60583;BME280;46415;47.536;19.066;2024-03-22T05:48:02;-18553.13;;;11.92;100.00
60583;BME280;46415;47.536;19.066;2024-03-22T05:51:04;-18553.00;;;11.92;100.00
60583;BME280;46415;47.536;19.066;2024-03-22T05:54:06;-18556.69;;;12.05;100.00
60583;BME280;46415;47.536;19.066;2024-03-22T05:57:09;-18558.59;;;12.12;100.00
60583;BME280;46415;47.536;19.066;2024-03-22T06:00:11;-18559.84;;;12.17;100.00
60583;BME280;46415;47.536;19.066;2024-03-22T06:03:15;-18562.16;;;12.25;100.00
60583;BME280;46415;47.536;19.066;2024-03-22T06:06:16;-18565.44;;;12.38;100.00
60583;BME280;46415;47.536;19.066;2024-03-22T06:09:19;-18569.13;;;12.51;100.00
60583;BME280;46415;47.536;19.066;2024-03-22T06:12:36;-18568.31;;;12.48;100.00
60583;BME280;46415;47.536;19.066;2024-03-22T06:15:38;-18570.91;;;12.58;99.89
60583;BME280;46415;47.536;19.066;2024-03-22T06:18:40;-18573.78;;;12.68;99.13
60583;BME280;46415;47.536;19.066;2024-03-22T06:21:42;-18574.88;;;12.73;99.40
60583;BME280;46415;47.536;19.066;2024-03-22T06:24:44;-18571.03;;;12.58;100.00
60583;BME280;46415;47.536;19.066;2024-03-22T06:27:46;-18571.03;;;12.58;100.00
60583;BME280;46415;47.536;19.066;2024-03-22T06:30:49;-18572.53;;;12.64;100.00
60583;BME280;46415;47.536;19.066;2024-03-22T06:33:51;-18577.31;;;12.82;100.00
60583;BME280;46415;47.536;19.066;2024-03-22T06:36:54;-18576.22;;;12.78;99.43
60583;BME280;46415;47.536;19.066;2024-03-22T06:39:56;-18582.25;;;13.00;98.62
60583;BME280;46415;47.536;19.066;2024-03-22T06:42:58;-18587.72;;;13.20;97.42
60583;BME280;46415;47.536;19.066;2024-03-22T06:46:00;-18590.72;;;13.31;96.49
60583;BME280;46415;47.536;19.066;2024-03-22T06:49:02;-18591.00;;;13.32;96.85
60583;BME280;46415;47.536;19.066;2024-03-22T06:52:04;-18592.91;;;13.39;96.59
60583;BME280;46415;47.536;19.066;2024-03-22T06:55:06;-18592.09;;;13.36;95.26
60583;BME280;46415;47.536;19.066;2024-03-22T06:58:08;-18592.63;;;13.38;95.04
60583;BME280;46415;47.536;19.066;2024-03-22T07:01:10;-18598.66;;;13.61;93.58
60583;BME280;46415;47.536;19.066;2024-03-22T07:04:12;-18600.56;;;13.68;91.79
60583;BME280;46415;47.536;19.066;2024-03-22T07:07:13;-18600.69;;;13.68;92.04
60583;BME280;46415;47.536;19.066;2024-03-22T07:10:15;-18603.44;;;13.78;91.64
60583;BME280;46415;47.536;19.066;2024-03-22T07:13:17;-18598.50;;;13.60;92.35
60583;BME280;46415;47.536;19.066;2024-03-22T07:16:19;-18603.28;;;13.78;91.26
60583;BME280;46415;47.536;19.066;2024-03-22T07:19:21;-18612.16;;;14.11;90.02
60583;BME280;46415;47.536;19.066;2024-03-22T07:22:23;-18614.34;;;14.19;89.18
60583;BME280;46415;47.536;19.066;2024-03-22T07:25:25;-18612.44;;;14.12;89.20
60583;BME280;46415;47.536;19.066;2024-03-22T07:28:27;-18615.97;;;14.25;87.92
60583;BME280;46415;47.536;19.066;2024-03-22T07:31:29;-18616.81;;;14.28;88.89
60583;BME280;46415;47.536;19.066;2024-03-22T07:34:31;-18617.75;;;14.31;88.03
60583;BME280;46415;47.536;19.066;2024-03-22T07:37:33;-18614.75;;;14.20;88.39
60583;BME280;46415;47.536;19.066;2024-03-22T07:40:38;-18620.22;;;14.41;88.20
60583;BME280;46415;47.536;19.066;2024-03-22T07:43:39;-18617.47;;;14.30;86.82
60583;BME280;46415;47.536;19.066;2024-03-22T07:46:42;-18621.03;;;14.44;88.07
60583;BME280;46415;47.536;19.066;2024-03-22T07:49:44;-18619.41;;;14.38;87.58
60583;BME280;46415;47.536;19.066;2024-03-22T07:52:46;-18625.69;;;14.61;87.42
60583;BME280;46415;47.536;19.066;2024-03-22T07:55:48;-18623.34;;;14.52;85.14
60583;BME280;46415;47.536;19.066;2024-03-22T07:58:50;-18628.13;;;14.70;84.35
60583;BME280;46415;47.536;19.066;2024-03-22T08:01:52;-18625.81;;;14.61;84.14
60583;BME280;46415;47.536;19.066;2024-03-22T08:04:53;-18627.19;;;14.66;84.04
60583;BME280;46415;47.536;19.066;2024-03-22T08:07:55;-18624.31;;;14.56;85.14
60583;BME280;46415;47.536;19.066;2024-03-22T08:10:57;-18625.13;;;14.59;84.60
60583;BME280;46415;47.536;19.066;2024-03-22T08:13:59;-18630.31;;;14.78;84.25
60583;BME280;46415;47.536;19.066;2024-03-22T08:17:07;-18621.59;;;14.46;84.47
60583;BME280;46415;47.536;19.066;2024-03-22T08:20:10;-18623.75;;;14.54;84.48
60583;BME280;46415;47.536;19.066;2024-03-22T08:23:13;-18627.03;;;14.66;83.83
60583;BME280;46415;47.536;19.066;2024-03-22T08:26:14;-18626.78;;;14.65;84.13
60583;BME280;46415;47.536;19.066;2024-03-22T08:29:16;-18627.19;;;14.66;84.16
60583;BME280;46415;47.536;19.066;2024-03-22T08:32:18;-18629.38;;;14.75;84.31
60583;BME280;46415;47.536;19.066;2024-03-22T08:35:20;-18631.81;;;14.84;83.63
60583;BME280;46415;47.536;19.066;2024-03-22T08:38:23;-18634.97;;;14.95;82.63
60583;BME280;46415;47.536;19.066;2024-03-22T08:41:26;-18646.13;;;15.37;80.81
60583;BME280;46415;47.536;19.066;2024-03-22T08:44:27;-18651.06;;;15.55;79.13
60583;BME280;46415;47.536;19.066;2024-03-22T08:47:30;-18663.88;;;16.03;77.81
60583;BME280;46415;47.536;19.066;2024-03-22T08:50:33;-18668.37;;;16.19;75.57
60583;BME280;46415;47.536;19.066;2024-03-22T08:53:35;-18678.84;;;16.58;72.26
60583;BME280;46415;47.536;19.066;2024-03-22T08:56:37;-18686.88;;;16.88;69.64
60583;BME280;46415;47.536;19.066;2024-03-22T08:59:39;-18689.63;;;16.98;70.50
60583;BME280;46415;47.536;19.066;2024-03-22T09:02:41;-18699.81;;;17.36;65.94
60583;BME280;46415;47.536;19.066;2024-03-22T09:05:43;-18703.38;;;17.49;66.46
60583;BME280;46415;47.536;19.066;2024-03-22T09:08:45;-18705.53;;;17.58;65.80
60583;BME280;46415;47.536;19.066;2024-03-22T09:11:47;-18700.38;;;17.38;66.27
60583;BME280;46415;47.536;19.066;2024-03-22T09:14:50;-18701.03;;;17.41;66.76
60583;BME280;46415;47.536;19.066;2024-03-22T09:17:52;-18700.09;;;17.37;65.48
60583;BME280;46415;47.536;19.066;2024-03-22T09:20:55;-18695.19;;;17.19;67.06
60583;BME280;46415;47.536;19.066;2024-03-22T09:23:58;-18696.84;;;17.25;67.05
60583;BME280;46415;47.536;19.066;2024-03-22T09:27:00;-18705.13;;;17.56;65.78
60583;BME280;46415;47.536;19.066;2024-03-22T09:30:02;-18714.53;;;17.91;64.61
60583;BME280;46415;47.536;19.066;2024-03-22T09:33:06;-18720.25;;;18.12;63.92
60583;BME280;46415;47.536;19.066;2024-03-22T09:36:09;-18726.22;;;18.34;61.22
60583;BME280;46415;47.536;19.066;2024-03-22T09:39:11;-18732.22;;;18.57;59.97
60583;BME280;46415;47.536;19.066;2024-03-22T09:42:16;-18732.34;;;18.57;59.88
60583;BME280;46415;47.536;19.066;2024-03-22T09:45:19;-18740.91;;;18.89;57.67
60583;BME280;46415;47.536;19.066;2024-03-22T09:48:23;-18744.44;;;19.02;56.77
60583;BME280;46415;47.536;19.066;2024-03-22T09:51:25;-18738.72;;;18.81;57.50
60583;BME280;46415;47.536;19.066;2024-03-22T09:54:27;-18731.94;;;18.56;58.83
60583;BME280;46415;47.536;19.066;2024-03-22T09:57:29;-18737.66;;;18.77;58.84
60583;BME280;46415;47.536;19.066;2024-03-22T10:00:31;-18733.44;;;18.61;58.38
60583;BME280;46415;47.536;19.066;2024-03-22T10:03:33;-18730.44;;;18.50;59.10
60583;BME280;46415;47.536;19.066;2024-03-22T10:06:36;-18716.16;;;17.97;62.39
60583;BME280;46415;47.536;19.066;2024-03-22T10:09:38;-18702.00;;;17.44;64.91
60583;BME280;46415;47.536;19.066;2024-03-22T10:12:40;-18695.59;;;17.21;66.79
60583;BME280;46415;47.536;19.066;2024-03-22T10:15:42;-18696.56;;;17.24;66.41
60583;BME280;46415;47.536;19.066;2024-03-22T10:18:44;-18710.19;;;17.75;64.60
60583;BME280;46415;47.536;19.066;2024-03-22T10:21:47;-18726.22;;;18.34;60.38
60583;BME280;46415;47.536;19.066;2024-03-22T10:24:49;-18725.41;;;18.31;59.89
60583;BME280;46415;47.536;19.066;2024-03-22T10:27:53;-18738.72;;;18.81;58.93
60583;BME280;46415;47.536;19.066;2024-03-22T10:30:55;-18746.22;;;19.09;58.93
60583;BME280;46415;47.536;19.066;2024-03-22T10:33:58;-18743.34;;;18.98;56.25
60583;BME280;46415;47.536;19.066;2024-03-22T10:37:01;-18730.97;;;18.52;58.02
60583;BME280;46415;47.536;19.066;2024-03-22T10:40:03;-18725.00;;;18.30;59.07
60583;BME280;46415;47.536;19.066;2024-03-22T10:43:13;-18746.63;;;19.10;57.68
60583;BME280;46415;47.536;19.066;2024-03-22T10:46:16;-18747.16;;;19.12;56.47
60583;BME280;46415;47.536;19.066;2024-03-22T10:49:21;-18753.53;;;19.36;55.73
60583;BME280;46415;47.536;19.066;2024-03-22T10:52:23;-18756.41;;;19.47;53.88
60583;BME280;46415;47.536;19.066;2024-03-22T10:55:33;-18739.97;;;18.86;55.46
60583;BME280;46415;47.536;19.066;2024-03-22T10:58:39;-18750.41;;;19.25;53.32
60583;BME280;46415;47.536;19.066;2024-03-22T11:01:48;-18764.97;;;19.79;50.42
60583;BME280;46415;47.536;19.066;2024-03-22T11:04:57;-18754.50;;;19.40;50.70
60583;BME280;46415;47.536;19.066;2024-03-22T11:11:11;-18770.25;;;19.98;50.18
60583;BME280;46415;47.536;19.066;2024-03-22T11:14:13;-18761.03;;;19.64;49.28
60583;BME280;46415;47.536;19.066;2024-03-22T11:17:15;-18760.06;;;19.61;51.40
60583;BME280;46415;47.536;19.066;2024-03-22T11:20:17;-18768.91;;;19.93;51.43
60583;BME280;46415;47.536;19.066;2024-03-22T11:23:20;-18767.69;;;19.89;50.00
60583;BME280;46415;47.536;19.066;2024-03-22T11:26:22;-18755.84;;;19.45;50.31
60583;BME280;46415;47.536;19.066;2024-03-22T11:29:26;-18764.16;;;19.76;48.91
60583;BME280;46415;47.536;19.066;2024-03-22T11:32:27;-18762.94;;;19.71;49.59
60583;BME280;46415;47.536;19.066;2024-03-22T11:35:31;-18764.97;;;19.79;49.45
60583;BME280;46415;47.536;19.066;2024-03-22T11:38:33;-18764.97;;;19.79;49.50
60583;BME280;46415;47.536;19.066;2024-03-22T11:41:38;-18773.66;;;20.11;48.02
60583;BME280;46415;47.536;19.066;2024-03-22T11:44:40;-18774.47;;;20.14;47.67
60583;BME280;46415;47.536;19.066;2024-03-22T11:47:43;-18778.94;;;20.31;45.43
60583;BME280;46415;47.536;19.066;2024-03-22T11:50:46;-18783.69;;;20.49;45.60
60583;BME280;46415;47.536;19.066;2024-03-22T11:53:49;-18791.16;;;20.76;45.39
60583;BME280;46415;47.536;19.066;2024-03-22T11:56:51;-18797.25;;;20.99;42.97
60583;BME280;46415;47.536;19.066;2024-03-22T11:59:59;-18797.53;;;21.00;41.84
60583;BME280;46415;47.536;19.066;2024-03-22T12:03:04;-18792.25;;;20.81;41.63
60583;BME280;46415;47.536;19.066;2024-03-22T12:06:06;-18771.34;;;20.03;41.72
60583;BME280;46415;47.536;19.066;2024-03-22T12:09:08;-18768.22;;;19.91;43.39
60583;BME280;46415;47.536;19.066;2024-03-22T12:12:13;-18776.91;;;20.23;43.11
60583;BME280;46415;47.536;19.066;2024-03-22T12:15:15;-18780.56;;;20.37;42.61
60583;BME280;46415;47.536;19.066;2024-03-22T12:18:17;-18770.81;;;20.01;43.46
60583;BME280;46415;47.536;19.066;2024-03-22T12:21:19;-18765.09;;;19.79;44.05
60583;BME280;46415;47.536;19.066;2024-03-22T12:24:22;-18772.16;;;20.06;43.35
60583;BME280;46415;47.536;19.066;2024-03-22T12:27:24;-18772.44;;;20.07;43.38
60583;BME280;46415;47.536;19.066;2024-03-22T12:30:27;-18777.03;;;20.24;43.48
60583;BME280;46415;47.536;19.066;2024-03-22T12:33:28;-18776.09;;;20.20;43.62
60583;BME280;46415;47.536;19.066;2024-03-22T12:36:31;-18774.59;;;20.15;44.02
60583;BME280;46415;47.536;19.066;2024-03-22T12:39:33;-18781.66;;;20.41;44.23
60583;BME280;46415;47.536;19.066;2024-03-22T12:42:37;-18777.72;;;20.26;43.87
60583;BME280;46415;47.536;19.066;2024-03-22T12:45:38;-18780.03;;;20.35;43.02
60583;BME280;46415;47.536;19.066;2024-03-22T12:48:40;-18775.97;;;20.20;43.05
60583;BME280;46415;47.536;19.066;2024-03-22T12:51:43;-18778.41;;;20.29;42.83
60583;BME280;46415;47.536;19.066;2024-03-22T12:54:45;-18772.44;;;20.07;43.45
60583;BME280;46415;47.536;19.066;2024-03-22T12:57:47;-18778.81;;;20.30;42.72
60583;BME280;46415;47.536;19.066;2024-03-22T13:00:49;-18766.19;;;19.83;43.19
60583;BME280;46415;47.536;19.066;2024-03-22T13:03:51;-18759.53;;;19.59;43.85
60583;BME280;46415;47.536;19.066;2024-03-22T13:06:53;-18749.47;;;19.21;44.63
60583;BME280;46415;47.536;19.066;2024-03-22T13:09:55;-18753.00;;;19.34;45.19
60583;BME280;46415;47.536;19.066;2024-03-22T13:12:57;-18758.84;;;19.56;44.93
60583;BME280;46415;47.536;19.066;2024-03-22T13:15:59;-18756.94;;;19.49;45.26
60583;BME280;46415;47.536;19.066;2024-03-22T13:19:04;-18764.81;;;19.78;44.68
60583;BME280;46415;47.536;19.066;2024-03-22T13:22:07;-18762.94;;;19.71;44.17
60583;BME280;46415;47.536;19.066;2024-03-22T13:25:09;-18759.66;;;19.59;44.71
60583;BME280;46415;47.536;19.066;2024-03-22T13:28:12;-18753.94;;;19.38;45.11
60583;BME280;46415;47.536;19.066;2024-03-22T13:31:14;-18760.75;;;19.63;44.97
60583;BME280;46415;47.536;19.066;2024-03-22T13:34:17;-18768.75;;;19.93;44.25
60583;BME280;46415;47.536;19.066;2024-03-22T13:37:19;-18771.06;;;20.02;42.82
60583;BME280;46415;47.536;19.066;2024-03-22T13:40:21;-18771.63;;;20.04;41.46
60583;BME280;46415;47.536;19.066;2024-03-22T13:43:23;-18789.81;;;20.71;41.16
60583;BME280;46415;47.536;19.066;2024-03-22T13:46:26;-18771.19;;;20.02;42.17
60583;BME280;46415;47.536;19.066;2024-03-22T13:49:29;-18779.09;;;20.31;41.73
60583;BME280;46415;47.536;19.066;2024-03-22T13:52:31;-18780.84;;;20.38;42.05
60583;BME280;46415;47.536;19.066;2024-03-22T13:55:33;-18771.47;;;20.03;42.71
60583;BME280;46415;47.536;19.066;2024-03-22T13:58:35;-18770.53;;;20.00;43.33
60583;BME280;46415;47.536;19.066;2024-03-22T14:01:37;-18777.19;;;20.24;43.45
60583;BME280;46415;47.536;19.066;2024-03-22T14:04:40;-18778.13;;;20.28;43.05
60583;BME280;46415;47.536;19.066;2024-03-22T14:07:41;-18786.81;;;20.60;41.84
60583;BME280;46415;47.536;19.066;2024-03-22T14:10:43;-18773.25;;;20.10;42.18
60583;BME280;46415;47.536;19.066;2024-03-22T14:13:45;-18770.12;;;19.98;41.32
60583;BME280;46415;47.536;19.066;2024-03-22T14:16:47;-18767.13;;;19.87;41.01
60583;BME280;46415;47.536;19.066;2024-03-22T14:19:49;-18761.84;;;19.67;41.86
60583;BME280;46415;47.536;19.066;2024-03-22T14:22:51;-18774.31;;;20.14;40.90
60583;BME280;46415;47.536;19.066;2024-03-22T14:25:53;-18789.94;;;20.72;40.43
60583;BME280;46415;47.536;19.066;2024-03-22T14:28:55;-18786.69;;;20.60;39.74
60583;BME280;46415;47.536;19.066;2024-03-22T14:31:57;-18789.25;;;20.69;41.25
60583;BME280;46415;47.536;19.066;2024-03-22T14:34:59;-18807.03;;;21.36;38.42
60583;BME280;46415;47.536;19.066;2024-03-22T14:38:01;-18835.91;;;22.44;36.31
60583;BME280;46415;47.536;19.066;2024-03-22T14:41:06;-18864.75;;;23.51;34.73
60583;BME280;46415;47.536;19.066;2024-03-22T14:44:07;-18861.62;;;23.40;35.17
60583;BME280;46415;47.536;19.066;2024-03-22T14:47:10;-18840.09;;;22.59;35.44
60583;BME280;46415;47.536;19.066;2024-03-22T14:50:12;-18821.13;;;21.88;36.44
60583;BME280;46415;47.536;19.066;2024-03-22T14:53:14;-18799.84;;;21.09;38.07
60583;BME280;46415;47.536;19.066;2024-03-22T14:56:18;-18792.50;;;20.82;38.83
60583;BME280;46415;47.536;19.066;2024-03-22T14:59:21;-18779.50;;;20.33;39.76
60583;BME280;46415;47.536;19.066;2024-03-22T15:02:23;-18776.91;;;20.23;40.28
60583;BME280;46415;47.536;19.066;2024-03-22T15:05:25;-18774.06;;;20.13;39.92
60583;BME280;46415;47.536;19.066;2024-03-22T15:08:27;-18791.16;;;20.76;39.07
60583;BME280;46415;47.536;19.066;2024-03-22T15:11:30;-18805.94;;;21.32;37.91
60583;BME280;46415;47.536;19.066;2024-03-22T15:14:31;-18831.03;;;22.25;36.48
60583;BME280;46415;47.536;19.066;2024-03-22T15:17:34;-18855.94;;;23.18;35.39
60583;BME280;46415;47.536;19.066;2024-03-22T15:20:36;-18869.75;;;23.70;34.32
60583;BME280;46415;47.536;19.066;2024-03-22T15:23:38;-18858.25;;;23.27;34.21
60583;BME280;46415;47.536;19.066;2024-03-22T15:26:42;-18848.63;;;22.91;34.92
60583;BME280;46415;47.536;19.066;2024-03-22T15:29:44;-18825.88;;;22.06;36.00
60583;BME280;46415;47.536;19.066;2024-03-22T15:32:46;-18815.44;;;21.67;36.11
60583;BME280;46415;47.536;19.066;2024-03-22T15:35:48;-18835.09;;;22.40;35.51
60583;BME280;46415;47.536;19.066;2024-03-22T15:38:52;-18841.03;;;22.63;34.55
60583;BME280;46415;47.536;19.066;2024-03-22T15:41:54;-18828.84;;;22.17;34.26